Time,TemperatureF,DewpointF,PressureIn,WindDirection,WindDirectionDegrees,WindSpeedMPH,WindSpeedGustMPH,Humidity,HourlyPrecipIn,Conditions,Clouds,dailyrainin,SoftwareType,DateUTC
2013-01-25 00:02:00,52.0,47.0,29.60,West,270,0.0,1.0,83,0.00,,,0.30,,2013-01-24 22:02:00,
2013-01-25 00:11:00,52.0,47.0,29.60,West,270,0.0,1.0,83,0.00,,,0.30,,2013-01-24 22:11:00,
2013-01-25 00:21:00,51.0,47.0,29.61,NE,50,0.0,1.0,85,0.00,,,0.30,,2013-01-24 22:21:00,
2013-01-25 00:31:00,51.0,47.0,29.59,North,0,0.0,0.0,85,0.00,,,0.30,,2013-01-24 22:31:00,
2013-01-25 00:41:00,51.0,47.0,29.59,North,0,0.0,0.0,85,0.00,,,0.30,,2013-01-24 22:41:00,
2013-01-25 00:52:00,51.0,47.0,29.58,NE,45,0.0,0.0,86,0.00,,,0.30,,2013-01-24 22:52:00,
2013-01-25 01:01:00,51.0,47.0,29.58,North,0,0.0,0.0,85,0.00,,,0.30,,2013-01-24 23:01:00,
2013-01-25 01:11:00,51.0,47.0,29.58,North,0,0.0,0.0,85,0.00,,,0.30,,2013-01-24 23:11:00,
2013-01-25 01:21:00,51.0,47.0,29.59,North,0,0.0,0.0,85,0.00,,,0.30,,2013-01-24 23:21:00,
2013-01-25 01:31:00,51.0,47.0,29.58,East,90,0.0,2.0,86,0.00,,,0.30,,2013-01-24 23:31:00,
2013-01-25 01:42:00,51.0,47.0,29.58,East,90,0.0,2.0,86,0.00,,,0.30,,2013-01-24 23:42:00,
2013-01-25 01:52:00,51.0,47.0,29.59,North,0,0.0,0.0,86,0.00,,,0.30,,2013-01-24 23:52:00,
2013-01-25 02:01:00,51.0,47.0,29.58,North,0,0.0,0.0,86,0.00,,,0.30,,2013-01-25 00:01:00,
2013-01-25 02:11:00,51.0,47.0,29.58,North,0,0.0,0.0,86,0.00,,,0.30,,2013-01-25 00:11:00,
2013-01-25 02:21:00,52.0,47.0,29.58,WSW,255,0.0,2.0,84,0.00,,,0.30,,2013-01-25 00:21:00,
2013-01-25 02:31:00,52.0,47.0,29.59,North,0,0.0,0.0,82,0.00,,,0.30,,2013-01-25 00:31:00,
2013-01-25 02:41:00,52.0,47.0,29.59,North,0,0.0,0.0,82,0.00,,,0.30,,2013-01-25 00:41:00,
2013-01-25 02:52:00,51.0,46.0,29.59,North,0,0.0,0.0,83,0.00,,,0.30,,2013-01-25 00:52:00,
2013-01-25 03:01:00,51.0,47.0,29.59,NE,46,0.0,2.0,85,0.00,,,0.30,,2013-01-25 01:01:00,
2013-01-25 03:11:00,51.0,47.0,29.59,NE,46,0.0,2.0,85,0.00,,,0.30,,2013-01-25 01:11:00,
2013-01-25 03:21:00,51.0,47.0,29.58,NNE,33,1.0,3.0,86,0.00,,,0.30,,2013-01-25 01:21:00,
2013-01-25 03:31:00,51.0,46.0,29.59,WNW,286,0.0,3.0,83,0.00,,,0.30,,2013-01-25 01:31:00,
2013-01-25 03:41:00,51.0,46.0,29.59,WNW,286,0.0,3.0,83,0.00,,,0.30,,2013-01-25 01:41:00,
2013-01-25 03:52:00,51.0,46.0,29.59,North,0,0.0,0.0,83,0.00,,,0.30,,2013-01-25 01:52:00,
2013-01-25 04:01:00,51.0,46.0,29.59,NNW,337,1.0,3.0,83,0.00,,,0.30,,2013-01-25 02:01:00,
2013-01-25 04:11:00,51.0,46.0,29.59,NNW,337,1.0,3.0,83,0.00,,,0.30,,2013-01-25 02:11:00,
2013-01-25 04:22:00,51.0,45.0,29.58,East,82,1.0,3.0,80,0.00,,,0.30,,2013-01-25 02:22:00,
2013-01-25 04:31:00,53.0,45.0,29.58,WSW,253,1.0,3.0,73,0.00,,,0.30,,2013-01-25 02:31:00,
2013-01-25 04:41:00,53.0,44.0,29.58,West,269,6.0,11.0,72,0.00,,,0.30,,2013-01-25 02:41:00,
2013-01-25 04:52:00,53.0,44.0,29.58,West,269,6.0,11.0,72,0.00,,,0.30,,2013-01-25 02:52:00,
2013-01-25 05:01:00,53.0,45.0,29.58,North,349,1.0,4.0,74,0.00,,,0.30,,2013-01-25 03:01:00,
2013-01-25 05:11:00,53.0,45.0,29.58,ENE,58,0.0,3.0,75,0.00,,,0.30,,2013-01-25 03:11:00,
2013-01-25 05:21:00,53.0,45.0,29.58,ENE,58,0.0,3.0,75,0.00,,,0.30,,2013-01-25 03:21:00,
2013-01-25 05:32:00,52.0,44.0,29.58,West,270,0.0,0.0,75,0.00,,,0.30,,2013-01-25 03:32:00,
2013-01-25 05:41:00,52.0,44.0,29.58,West,270,0.0,0.0,75,0.00,,,0.30,,2013-01-25 03:41:00,
2013-01-25 05:52:00,52.0,45.0,29.59,West,270,0.0,0.0,77,0.00,,,0.30,,2013-01-25 03:52:00,
2013-01-25 06:01:00,51.0,45.0,29.59,NNE,18,0.0,3.0,79,0.00,,,0.30,,2013-01-25 04:01:00,
2013-01-25 06:11:00,50.0,44.0,29.59,NE,40,1.0,2.0,79,0.00,,,0.30,,2013-01-25 04:11:00,
2013-01-25 06:22:00,50.0,44.0,29.59,NE,40,1.0,2.0,79,0.00,,,0.30,,2013-01-25 04:22:00,
2013-01-25 06:31:00,50.0,44.0,29.58,NNE,16,0.0,2.0,79,0.00,,,0.30,,2013-01-25 04:31:00,
2013-01-25 06:41:00,50.0,44.0,29.58,NNE,16,0.0,2.0,79,0.00,,,0.30,,2013-01-25 04:41:00,
2013-01-25 06:51:00,50.0,44.0,29.59,NNE,24,0.0,3.0,79,0.00,,,0.30,,2013-01-25 04:51:00,
2013-01-25 07:03:00,50.0,44.0,29.59,NE,38,1.0,3.0,80,0.00,,,0.30,,2013-01-25 05:03:00,
2013-01-25 07:12:00,50.0,44.0,29.59,North,0,0.0,0.0,81,0.00,,,0.30,,2013-01-25 05:12:00,
2013-01-25 07:22:00,50.0,44.0,29.59,North,0,0.0,0.0,81,0.00,,,0.30,,2013-01-25 05:22:00,
2013-01-25 07:31:00,50.0,45.0,29.60,NE,51,1.0,3.0,82,0.00,,,0.30,,2013-01-25 05:31:00,
2013-01-25 07:42:00,50.0,45.0,29.60,NE,51,1.0,3.0,82,0.00,,,0.30,,2013-01-25 05:42:00,
2013-01-25 07:52:00,50.0,45.0,29.60,NE,45,0.0,0.0,83,0.00,,,0.30,,2013-01-25 05:52:00,
2013-01-25 08:01:00,50.0,45.0,29.60,NE,45,0.0,1.0,83,0.00,,,0.30,,2013-01-25 06:01:00,
2013-01-25 08:11:00,50.0,45.0,29.60,NE,45,0.0,1.0,83,0.00,,,0.30,,2013-01-25 06:11:00,
2013-01-25 08:21:00,51.0,47.0,29.59,NE,45,0.0,1.0,85,0.00,,,0.30,,2013-01-25 06:21:00,
2013-01-25 08:31:00,51.0,46.0,29.59,East,89,1.0,5.0,84,0.00,,,0.25,,2013-01-25 06:31:00,
2013-01-25 08:41:00,51.0,46.0,29.59,East,91,0.0,1.0,83,0.00,,,0.25,,2013-01-25 06:41:00,
2013-01-25 08:52:00,51.0,46.0,29.59,East,91,0.0,1.0,83,0.00,,,0.25,,2013-01-25 06:52:00,
2013-01-25 09:01:00,52.0,47.0,29.59,North,0,0.0,0.0,82,0.00,,,0.24,,2013-01-25 07:01:00,
2013-01-25 09:11:00,52.0,46.0,29.60,NNE,18,0.0,2.0,79,0.00,,,0.24,,2013-01-25 07:11:00,
2013-01-25 09:21:00,52.0,46.0,29.60,NNE,18,0.0,2.0,79,0.00,,,0.24,,2013-01-25 07:21:00,
2013-01-25 09:31:00,52.0,45.0,29.60,ENE,57,0.0,1.0,78,0.00,,,0.24,,2013-01-25 07:31:00,
2013-01-25 09:41:00,52.0,45.0,29.60,ENE,57,0.0,1.0,78,0.00,,,0.24,,2013-01-25 07:41:00,
2013-01-25 09:52:00,52.0,46.0,29.60,ENE,69,1.0,3.0,79,0.00,,,0.24,,2013-01-25 07:52:00,
2013-01-25 10:01:00,53.0,47.0,29.60,NE,42,0.0,2.0,79,0.00,,,0.24,,2013-01-25 08:01:00,
2013-01-25 10:11:00,59.0,48.0,29.60,NE,37,0.0,3.0,67,0.00,,,0.24,,2013-01-25 08:11:00,
2013-01-25 10:21:00,59.0,48.0,29.60,NE,37,0.0,3.0,67,0.00,,,0.24,,2013-01-25 08:21:00,
2013-01-25 10:31:00,63.0,47.0,29.60,NE,49,1.0,2.0,55,0.00,,,0.24,,2013-01-25 08:31:00,
2013-01-25 10:41:00,63.0,47.0,29.60,NE,49,1.0,2.0,55,0.00,,,0.24,,2013-01-25 08:41:00,
2013-01-25 10:52:00,66.0,49.0,29.60,NE,40,0.0,2.0,54,0.00,,,0.24,,2013-01-25 08:52:00,
2013-01-25 11:01:00,69.0,48.0,29.59,ENE,78,1.0,2.0,48,0.00,,,0.24,,2013-01-25 09:01:00,
2013-01-25 11:11:00,66.0,46.0,29.59,West,272,2.0,3.0,49,0.00,,,0.24,,2013-01-25 09:11:00,
2013-01-25 11:21:00,66.0,46.0,29.59,West,272,2.0,3.0,49,0.00,,,0.24,,2013-01-25 09:21:00,
2013-01-25 11:31:00,63.0,46.0,29.59,WNW,289,4.0,8.0,53,0.00,,,0.24,,2013-01-25 09:31:00,
2013-01-25 11:41:00,63.0,46.0,29.59,WNW,289,4.0,8.0,53,0.00,,,0.24,,2013-01-25 09:41:00,
2013-01-25 11:52:00,62.0,46.0,29.58,West,267,3.0,5.0,55,0.00,,,0.24,,2013-01-25 09:52:00,
2013-01-25 12:01:00,61.0,46.0,29.58,WSW,238,3.0,6.0,57,0.00,,,0.24,,2013-01-25 10:01:00,
2013-01-25 12:11:00,62.0,49.0,29.57,WSW,242,4.0,9.0,62,0.00,,,0.24,,2013-01-25 10:11:00,
2013-01-25 12:21:00,62.0,49.0,29.57,WSW,242,4.0,9.0,62,0.00,,,0.24,,2013-01-25 10:21:00,
2013-01-25 12:31:00,62.0,49.0,29.57,NW,310,6.0,9.0,63,0.00,,,0.24,,2013-01-25 10:31:00,
2013-01-25 12:41:00,62.0,49.0,29.57,NW,310,6.0,9.0,63,0.00,,,0.24,,2013-01-25 10:41:00,
2013-01-25 12:52:00,61.0,49.0,29.56,WSW,244,4.0,9.0,65,0.00,,,0.24,,2013-01-25 10:52:00,
2013-01-25 13:01:00,60.0,49.0,29.55,NW,311,6.0,11.0,67,0.00,,,0.24,,2013-01-25 11:01:00,
2013-01-25 13:11:00,60.0,49.0,29.55,NW,311,6.0,11.0,67,0.00,,,0.24,,2013-01-25 11:11:00,
2013-01-25 13:21:00,59.0,49.0,29.54,WSW,241,7.0,14.0,70,0.00,,,0.24,,2013-01-25 11:21:00,
2013-01-25 13:31:00,58.0,51.0,29.54,West,260,8.0,10.0,77,0.01,,,0.25,,2013-01-25 11:31:00,
2013-01-25 13:41:00,58.0,51.0,29.54,West,260,8.0,10.0,77,0.01,,,0.25,,2013-01-25 11:41:00,
2013-01-25 13:52:00,57.0,51.0,29.53,WNW,298,7.0,11.0,81,0.01,,,0.25,,2013-01-25 11:52:00,
2013-01-25 14:01:00,57.0,53.0,29.51,WNW,289,3.0,6.0,85,0.01,,,0.25,,2013-01-25 12:01:00,
2013-01-25 14:11:00,57.0,53.0,29.51,WNW,289,3.0,6.0,85,0.01,,,0.25,,2013-01-25 12:11:00,
2013-01-25 14:21:00,57.0,51.0,29.51,WSW,258,2.0,5.0,81,0.01,,,0.25,,2013-01-25 12:21:00,
2013-01-25 14:32:00,58.0,51.0,29.50,ESE,102,5.0,17.0,77,0.00,,,0.25,,2013-01-25 12:32:00,
2013-01-25 14:41:00,58.0,51.0,29.50,ESE,102,5.0,17.0,77,0.00,,,0.25,,2013-01-25 12:41:00,
2013-01-25 14:53:00,59.0,50.0,29.49,WSW,237,11.0,16.0,73,0.00,,,0.25,,2013-01-25 12:53:00,
2013-01-25 15:01:00,60.0,52.0,29.48,West,276,9.0,14.0,74,0.00,,,0.25,,2013-01-25 13:01:00,
2013-01-25 15:11:00,60.0,52.0,29.48,West,276,9.0,14.0,74,0.00,,,0.25,,2013-01-25 13:11:00,
2013-01-25 15:21:00,59.0,51.0,29.48,West,263,10.0,14.0,74,0.00,,,0.25,,2013-01-25 13:21:00,
2013-01-25 15:31:00,59.0,50.0,29.48,WSW,251,10.0,17.0,73,0.00,,,0.25,,2013-01-25 13:31:00,
2013-01-25 15:42:00,59.0,50.0,29.48,WSW,251,10.0,17.0,73,0.00,,,0.25,,2013-01-25 13:42:00,
2013-01-25 15:52:00,59.0,50.0,29.47,West,259,11.0,19.0,73,0.00,,,0.25,,2013-01-25 13:52:00,
2013-01-25 16:02:00,59.0,50.0,29.47,SSW,205,11.0,12.0,73,0.00,,,0.25,,2013-01-25 14:02:00,
2013-01-25 16:11:00,59.0,50.0,29.47,SSW,205,11.0,12.0,73,0.00,,,0.25,,2013-01-25 14:11:00,
2013-01-25 16:22:00,58.0,51.0,29.47,West,281,14.0,22.0,77,0.02,,,0.28,,2013-01-25 14:22:00,
2013-01-25 16:32:00,57.0,53.0,29.48,WNW,302,12.0,17.0,86,0.05,,,0.31,,2013-01-25 14:32:00,
2013-01-25 16:41:00,57.0,53.0,29.48,WNW,302,12.0,17.0,86,0.05,,,0.31,,2013-01-25 14:41:00,
2013-01-25 16:53:00,52.0,49.0,29.49,WNW,287,12.0,22.0,91,0.17,,,0.43,,2013-01-25 14:53:00,
2013-01-25 17:01:00,53.0,51.0,29.49,WNW,298,13.0,17.0,93,0.25,,,0.51,,2013-01-25 15:01:00,
2013-01-25 17:11:00,53.0,51.0,29.49,WNW,298,13.0,17.0,93,0.25,,,0.51,,2013-01-25 15:11:00,
2013-01-25 17:21:00,54.0,51.0,29.48,West,274,12.0,16.0,89,0.25,,,0.53,,2013-01-25 15:21:00,
2013-01-25 17:31:00,53.0,50.0,29.47,West,264,12.0,24.0,91,0.33,,,0.56,,2013-01-25 15:31:00,
2013-01-25 17:41:00,53.0,50.0,29.47,West,264,12.0,24.0,91,0.33,,,0.56,,2013-01-25 15:41:00,
2013-01-25 17:52:00,52.0,50.0,29.44,South,183,7.0,11.0,94,0.31,,,0.63,,2013-01-25 15:52:00,
2013-01-25 18:01:00,53.0,51.0,29.45,WNW,287,7.0,17.0,94,0.23,,,0.62,,2013-01-25 16:01:00,
2013-01-25 18:11:00,53.0,51.0,29.45,WNW,287,7.0,17.0,94,0.23,,,0.62,,2013-01-25 16:11:00,
2013-01-25 18:21:00,55.0,50.0,29.46,WSW,255,8.0,18.0,84,0.21,,,0.55,,2013-01-25 16:21:00,
2013-01-25 18:31:00,56.0,51.0,29.45,WNW,289,7.0,16.0,83,0.10,,,0.55,,2013-01-25 16:31:00,
2013-01-25 18:41:00,56.0,51.0,29.45,WNW,289,7.0,16.0,83,0.10,,,0.55,,2013-01-25 16:41:00,
2013-01-25 18:52:00,55.0,51.0,29.44,WSW,258,4.0,6.0,85,0.00,,,0.55,,2013-01-25 16:52:00,
2013-01-25 19:01:00,56.0,52.0,29.47,WSW,244,7.0,11.0,85,0.00,,,0.54,,2013-01-25 17:01:00,
2013-01-25 19:11:00,56.0,52.0,29.47,WSW,244,7.0,11.0,85,0.00,,,0.54,,2013-01-25 17:11:00,
2013-01-25 19:21:00,56.0,51.0,29.47,WNW,283,8.0,12.0,83,0.00,,,0.54,,2013-01-25 17:21:00,
2013-01-25 19:31:00,56.0,50.0,29.47,West,259,8.0,12.0,79,0.00,,,0.53,,2013-01-25 17:31:00,
2013-01-25 19:42:00,56.0,50.0,29.47,West,259,8.0,12.0,79,0.00,,,0.53,,2013-01-25 17:42:00,
2013-01-25 19:53:00,56.0,49.0,29.48,NW,326,8.0,14.0,76,0.00,,,0.51,,2013-01-25 17:53:00,
2013-01-25 20:01:00,55.0,48.0,29.47,WNW,288,8.0,15.0,77,0.00,,,0.50,,2013-01-25 18:01:00,
2013-01-25 20:11:00,55.0,48.0,29.47,WNW,288,8.0,15.0,77,0.00,,,0.50,,2013-01-25 18:11:00,
2013-01-25 20:22:00,55.0,49.0,29.48,West,269,10.0,19.0,80,0.00,,,0.50,,2013-01-25 18:22:00,
2013-01-25 20:32:00,55.0,50.0,29.49,WNW,301,8.0,12.0,82,0.01,,,0.51,,2013-01-25 18:32:00,
2013-01-25 20:41:00,55.0,50.0,29.49,WNW,301,8.0,12.0,82,0.01,,,0.51,,2013-01-25 18:41:00,
2013-01-25 20:52:00,55.0,50.0,29.49,WNW,300,6.0,9.0,83,0.01,,,0.51,,2013-01-25 18:52:00,
2013-01-25 21:01:00,56.0,50.0,29.49,West,273,7.0,14.0,80,0.01,,,0.51,,2013-01-25 19:01:00,
2013-01-25 21:11:00,56.0,50.0,29.49,West,273,7.0,14.0,80,0.01,,,0.51,,2013-01-25 19:11:00,
2013-01-25 21:21:00,56.0,50.0,29.49,WNW,285,9.0,15.0,80,0.01,,,0.51,,2013-01-25 19:21:00,
2013-01-25 21:31:00,56.0,51.0,29.49,West,279,9.0,15.0,82,0.00,,,0.51,,2013-01-25 19:31:00,
2013-01-25 21:41:00,56.0,51.0,29.49,West,279,9.0,15.0,82,0.00,,,0.51,,2013-01-25 19:41:00,
2013-01-25 21:52:00,56.0,50.0,29.49,NW,307,8.0,12.0,80,0.00,,,0.51,,2013-01-25 19:52:00,
2013-01-25 22:01:00,56.0,51.0,29.49,WNW,300,7.0,11.0,82,0.00,,,0.51,,2013-01-25 20:01:00,
2013-01-25 22:11:00,56.0,51.0,29.49,WNW,300,7.0,11.0,82,0.00,,,0.51,,2013-01-25 20:11:00,
2013-01-25 22:21:00,56.0,51.0,29.48,West,280,6.0,12.0,83,0.00,,,0.51,,2013-01-25 20:21:00,
2013-01-25 22:31:00,56.0,51.0,29.48,WSW,258,7.0,12.0,84,0.00,,,0.51,,2013-01-25 20:31:00,
2013-01-25 22:41:00,56.0,51.0,29.48,WSW,258,7.0,12.0,84,0.00,,,0.51,,2013-01-25 20:41:00,
2013-01-25 22:52:00,57.0,51.0,29.47,West,273,6.0,12.0,80,0.00,,,0.51,,2013-01-25 20:52:00,
2013-01-25 23:01:00,56.0,50.0,29.48,West,274,7.0,10.0,79,0.00,,,0.51,,2013-01-25 21:01:00,
2013-01-25 23:11:00,56.0,50.0,29.48,West,274,7.0,10.0,79,0.00,,,0.51,,2013-01-25 21:11:00,
2013-01-25 23:22:00,55.0,48.0,29.47,West,273,6.0,12.0,76,0.00,,,0.51,,2013-01-25 21:22:00,
2013-01-25 23:32:00,55.0,48.0,29.47,NW,306,4.0,6.0,78,0.00,,,0.51,,2013-01-25 21:32:00,
2013-01-25 23:42:00,55.0,48.0,29.47,NW,306,4.0,6.0,78,0.00,,,0.51,,2013-01-25 21:42:00,
2013-01-25 23:52:00,54.0,48.0,29.48,WNW,284,3.0,6.0,81,0.00,,,0.51,,2013-01-25 21:52:00,